TAF and METAR

Decoding for American and Canadian METARs and TAFs is not fully implemented.

Could not understand the following METAR

KIPL 170253Z AUTO 27009KT 10SM CLR 36/01 A2964 RMK AO2 SLP037 T03560006 53006 $

TAF for Imperial County Airport

KIPL 162334Z 1700/1724 20014KT 6SM FU SKC FM170300 25010KT P6SM SKC FM171400 17010KT P6SM SKC
Report created 17. jul 01:34

between 17. jul 02:00 - 17. jul 02:00

wind 14 knots from SSW (200°)
Imperial County Airport in United States of America at -17m

Latest 5 airports